sensor_id;sensor_type;location;lat;lon;timestamp;pressure;altitude;pressure_sealevel;temperature;humidity
49044;BME280;34860;48.066;14.124;2023-11-19T00:00:44;96892.13;;;3.07;73.36
49044;BME280;34860;48.066;14.124;2023-11-19T00:03:44;96889.38;;;3.03;73.39
49044;BME280;34860;48.066;14.124;2023-11-19T00:06:48;96883.06;;;2.99;73.53
49044;BME280;34860;48.066;14.124;2023-11-19T00:09:44;96858.72;;;2.98;73.51
49044;BME280;34860;48.066;14.124;2023-11-19T00:12:42;96847.72;;;2.94;73.56
49044;BME280;34860;48.066;14.124;2023-11-19T00:15:39;96826.50;;;2.87;73.73
49044;BME280;34860;48.066;14.124;2023-11-19T00:18:41;96817.84;;;2.82;73.92
49044;BME280;34860;48.066;14.124;2023-11-19T00:21:39;96812.34;;;2.78;73.84
49044;BME280;34860;48.066;14.124;2023-11-19T00:24:33;96810.38;;;2.79;74.03
49044;BME280;34860;48.066;14.124;2023-11-19T00:27:30;96806.84;;;2.78;73.96
49044;BME280;34860;48.066;14.124;2023-11-19T00:30:26;96806.47;;;2.80;74.03
49044;BME280;34860;48.066;14.124;2023-11-19T00:33:27;96808.81;;;2.78;73.91
49044;BME280;34860;48.066;14.124;2023-11-19T00:36:24;96815.06;;;2.78;73.90
49044;BME280;34860;48.066;14.124;2023-11-19T00:39:24;96807.63;;;2.79;73.98
49044;BME280;34860;48.066;14.124;2023-11-19T00:42:21;96816.63;;;2.76;74.08
49044;BME280;34860;48.066;14.124;2023-11-19T00:45:21;96816.22;;;2.73;74.14
49044;BME280;34860;48.066;14.124;2023-11-19T00:48:16;96802.50;;;2.73;74.16
49044;BME280;34860;48.066;14.124;2023-11-19T00:51:18;96802.88;;;2.72;74.24
49044;BME280;34860;48.066;14.124;2023-11-19T00:54:18;96808.38;;;2.72;74.24
49044;BME280;34860;48.066;14.124;2023-11-19T00:57:12;96796.63;;;2.71;74.17
49044;BME280;34860;48.066;14.124;2023-11-19T01:00:12;96805.25;;;2.73;74.38
49044;BME280;34860;48.066;14.124;2023-11-19T01:03:14;96801.72;;;2.77;74.35
49044;BME280;34860;48.066;14.124;2023-11-19T01:06:13;96792.72;;;2.76;74.35
49044;BME280;34860;48.066;14.124;2023-11-19T01:09:08;96801.72;;;2.77;74.24
49044;BME280;34860;48.066;14.124;2023-11-19T01:12:07;96795.03;;;2.74;74.30
49044;BME280;34860;48.066;14.124;2023-11-19T01:15:07;96804.09;;;2.75;74.28
49044;BME280;34860;48.066;14.124;2023-11-19T01:18:07;96795.84;;;2.75;74.46
49044;BME280;34860;48.066;14.124;2023-11-19T01:21:02;96788.78;;;2.73;74.42
49044;BME280;34860;48.066;14.124;2023-11-19T01:24:01;96786.03;;;2.77;74.45
49044;BME280;34860;48.066;14.124;2023-11-19T01:26:59;96785.28;;;2.80;74.41
49044;BME280;34860;48.066;14.124;2023-11-19T01:30:00;96783.31;;;2.81;74.41
49044;BME280;34860;48.066;14.124;2023-11-19T01:32:58;96779.41;;;2.78;74.49
49044;BME280;34860;48.066;14.124;2023-11-19T01:35:57;96779.03;;;2.80;74.88
49044;BME280;34860;48.066;14.124;2023-11-19T01:38:53;96778.25;;;2.83;74.39
49044;BME280;34860;48.066;14.124;2023-11-19T01:41:49;96752.34;;;2.84;74.41
49044;BME280;34860;48.066;14.124;2023-11-19T01:45:00;96757.06;;;2.83;74.50
49044;BME280;34860;48.066;14.124;2023-11-19T01:47:56;96749.63;;;2.84;74.47
49044;BME280;34860;48.066;14.124;2023-11-19T01:50:55;96751.56;;;2.80;74.50
49044;BME280;34860;48.066;14.124;2023-11-19T01:53:56;96747.25;;;2.82;74.55
49044;BME280;34860;48.066;14.124;2023-11-19T01:56:53;96739.44;;;2.84;74.58
49044;BME280;34860;48.066;14.124;2023-11-19T01:59:50;96734.34;;;2.90;74.57
49044;BME280;34860;48.066;14.124;2023-11-19T02:02:50;96723.38;;;2.86;74.57
49044;BME280;34860;48.066;14.124;2023-11-19T02:05:51;96722.59;;;2.86;74.65
49044;BME280;34860;48.066;14.124;2023-11-19T02:08:48;96724.97;;;2.91;74.56
49044;BME280;34860;48.066;14.124;2023-11-19T02:11:44;96727.72;;;2.95;74.61
49044;BME280;34860;48.066;14.124;2023-11-19T02:14:37;96720.69;;;3.01;74.58
49044;BME280;34860;48.066;14.124;2023-11-19T02:17:37;96713.22;;;3.01;74.36
49044;BME280;34860;48.066;14.124;2023-11-19T02:20:34;96703.44;;;3.04;74.36
49044;BME280;34860;48.066;14.124;2023-11-19T02:23:33;96701.09;;;3.06;74.21
49044;BME280;34860;48.066;14.124;2023-11-19T02:26:38;96704.59;;;2.99;74.32
49044;BME280;34860;48.066;14.124;2023-11-19T02:29:38;96693.63;;;2.99;74.68
49044;BME280;34860;48.066;14.124;2023-11-19T02:32:34;96686.16;;;3.00;74.59
49044;BME280;34860;48.066;14.124;2023-11-19T02:35:34;96685.00;;;3.04;74.60
49044;BME280;34860;48.066;14.124;2023-11-19T02:38:32;96671.28;;;3.04;74.54
49044;BME280;34860;48.066;14.124;2023-11-19T02:41:28;96670.50;;;3.04;74.64
49044;BME280;34860;48.066;14.124;2023-11-19T02:44:27;96668.91;;;3.03;74.57
49044;BME280;34860;48.066;14.124;2023-11-19T02:47:25;96676.38;;;2.99;74.67
49044;BME280;34860;48.066;14.124;2023-11-19T02:50:24;96672.03;;;2.94;74.78
49044;BME280;34860;48.066;14.124;2023-11-19T02:53:21;96666.53;;;2.90;74.77
49044;BME280;34860;48.066;14.124;2023-11-19T02:56:21;96668.53;;;2.94;74.85
49044;BME280;34860;48.066;14.124;2023-11-19T02:59:17;96654.38;;;2.91;74.81
49044;BME280;34860;48.066;14.124;2023-11-19T03:02:26;96649.69;;;2.92;74.75
49044;BME280;34860;48.066;14.124;2023-11-19T03:05:29;96651.25;;;2.93;74.96
49044;BME280;34860;48.066;14.124;2023-11-19T03:08:28;96647.72;;;2.93;74.83
49044;BME280;34860;48.066;14.124;2023-11-19T03:11:24;96651.63;;;2.95;74.95
49044;BME280;34860;48.066;14.124;2023-11-19T03:14:25;96653.22;;;2.96;74.91
49044;BME280;34860;48.066;14.124;2023-11-19T03:17:21;96647.72;;;2.96;74.81
49044;BME280;34860;48.066;14.124;2023-11-19T03:20:20;96647.72;;;3.00;74.82
49044;BME280;34860;48.066;14.124;2023-11-19T03:23:20;96647.72;;;3.00;74.87
49044;BME280;34860;48.066;14.124;2023-11-19T03:26:18;96640.66;;;2.95;74.97
49044;BME280;34860;48.066;14.124;2023-11-19T03:29:17;96647.72;;;2.96;74.93
49044;BME280;34860;48.066;14.124;2023-11-19T03:32:15;96643.41;;;2.95;75.02
49044;BME280;34860;48.066;14.124;2023-11-19T03:35:23;96635.16;;;2.95;75.04
49044;BME280;34860;48.066;14.124;2023-11-19T03:38:21;96627.75;;;2.99;74.93
49044;BME280;34860;48.066;14.124;2023-11-19T03:41:18;96630.47;;;2.99;75.00
49044;BME280;34860;48.066;14.124;2023-11-19T03:44:14;96634.78;;;2.97;75.02
49044;BME280;34860;48.066;14.124;2023-11-19T03:47:14;96631.63;;;2.95;74.71
49044;BME280;34860;48.066;14.124;2023-11-19T03:50:18;96612.81;;;2.93;74.86
49044;BME280;34860;48.066;14.124;2023-11-19T03:53:18;96615.16;;;2.87;74.94
49044;BME280;34860;48.066;14.124;2023-11-19T03:56:17;96595.91;;;2.80;75.09
49044;BME280;34860;48.066;14.124;2023-11-19T03:59:12;96599.03;;;2.79;75.14
49044;BME280;34860;48.066;14.124;2023-11-19T04:02:10;96596.69;;;2.77;75.12
49044;BME280;34860;48.066;14.124;2023-11-19T04:05:06;96579.84;;;2.75;75.06
49044;BME280;34860;48.066;14.124;2023-11-19T04:08:03;96564.94;;;2.76;75.04
49044;BME280;34860;48.066;14.124;2023-11-19T04:11:04;96555.91;;;2.76;75.18
49044;BME280;34860;48.066;14.124;2023-11-19T04:14:02;96546.50;;;2.77;75.07
49044;BME280;34860;48.066;14.124;2023-11-19T04:17:00;96546.50;;;2.73;75.20
49044;BME280;34860;48.066;14.124;2023-11-19T04:20:00;96544.16;;;2.71;75.24
49044;BME280;34860;48.066;14.124;2023-11-19T04:22:58;96549.66;;;2.71;75.22
49044;BME280;34860;48.066;14.124;2023-11-19T04:25:53;96542.97;;;2.72;75.25
49044;BME280;34860;48.066;14.124;2023-11-19T04:29:00;96545.31;;;2.74;75.14
49044;BME280;34860;48.066;14.124;2023-11-19T04:31:58;96538.25;;;2.69;75.32
49044;BME280;34860;48.066;14.124;2023-11-19T04:34:53;96546.91;;;2.71;75.42
49044;BME280;34860;48.066;14.124;2023-11-19T04:37:50;96546.91;;;2.75;75.32
49044;BME280;34860;48.066;14.124;2023-11-19T04:40:52;96545.75;;;2.76;75.33
49044;BME280;34860;48.066;14.124;2023-11-19T04:43:49;96557.09;;;2.82;75.33
49044;BME280;34860;48.066;14.124;2023-11-19T04:46:48;96561.81;;;2.78;75.62
49044;BME280;34860;48.066;14.124;2023-11-19T04:49:45;96551.19;;;2.65;75.75
49044;BME280;34860;48.066;14.124;2023-11-19T04:52:41;96565.25;;;2.57;76.19
49044;BME280;34860;48.066;14.124;2023-11-19T04:55:34;96553.50;;;2.60;76.38
49044;BME280;34860;48.066;14.124;2023-11-19T04:58:29;96542.16;;;2.65;76.27
49044;BME280;34860;48.066;14.124;2023-11-19T05:01:26;96550.00;;;2.66;76.22
49044;BME280;34860;48.066;14.124;2023-11-19T05:04:21;96542.19;;;2.76;76.31
49044;BME280;34860;48.066;14.124;2023-11-19T05:07:15;96542.59;;;2.81;76.05
49044;BME280;34860;48.066;14.124;2023-11-19T05:10:15;96546.13;;;2.85;75.79
49044;BME280;34860;48.066;14.124;2023-11-19T05:13:16;96555.94;;;2.86;76.09
49044;BME280;34860;48.066;14.124;2023-11-19T05:16:15;96551.25;;;2.94;75.74
49044;BME280;34860;48.066;14.124;2023-11-19T05:19:15;96544.19;;;2.93;75.83
49044;BME280;34860;48.066;14.124;2023-11-19T05:22:12;96559.84;;;2.85;75.93
49044;BME280;34860;48.066;14.124;2023-11-19T05:25:09;96555.13;;;2.82;76.17
49044;BME280;34860;48.066;14.124;2023-11-19T05:28:11;96544.53;;;2.77;76.29
49044;BME280;34860;48.066;14.124;2023-11-19T05:31:10;96553.19;;;2.83;76.35
49044;BME280;34860;48.066;14.124;2023-11-19T05:34:07;96557.53;;;2.91;76.15
49044;BME280;34860;48.066;14.124;2023-11-19T05:37:04;96561.44;;;2.86;76.21
49044;BME280;34860;48.066;14.124;2023-11-19T05:40:04;96555.16;;;2.93;75.97
49044;BME280;34860;48.066;14.124;2023-11-19T05:43:05;96566.16;;;2.97;75.85
49044;BME280;34860;48.066;14.124;2023-11-19T05:46:06;96564.19;;;2.90;76.01
49044;BME280;34860;48.066;14.124;2023-11-19T05:49:08;96568.13;;;2.93;76.06
49044;BME280;34860;48.066;14.124;2023-11-19T05:52:06;96570.09;;;2.96;75.72
49044;BME280;34860;48.066;14.124;2023-11-19T05:55:06;96567.72;;;2.98;75.79
49044;BME280;34860;48.066;14.124;2023-11-19T05:58:02;96572.84;;;2.99;75.65
49044;BME280;34860;48.066;14.124;2023-11-19T06:00:59;96593.59;;;2.93;75.68
49044;BME280;34860;48.066;14.124;2023-11-19T06:03:55;96581.03;;;2.81;76.24
49044;BME280;34860;48.066;14.124;2023-11-19T06:06:51;96565.34;;;2.85;76.07
49044;BME280;34860;48.066;14.124;2023-11-19T06:09:47;96555.56;;;2.84;75.72
49044;BME280;34860;48.066;14.124;2023-11-19T06:12:51;96557.50;;;2.84;75.60
49044;BME280;34860;48.066;14.124;2023-11-19T06:15:53;96557.09;;;2.75;75.46
49044;BME280;34860;48.066;14.124;2023-11-19T06:18:49;96558.22;;;2.66;75.63
49044;BME280;34860;48.066;14.124;2023-11-19T06:21:45;96547.66;;;2.65;75.63
49044;BME280;34860;48.066;14.124;2023-11-19T06:24:41;96550.38;;;2.61;75.71
49044;BME280;34860;48.066;14.124;2023-11-19T06:27:34;96546.44;;;2.55;75.63
49044;BME280;34860;48.066;14.124;2023-11-19T06:30:37;96543.31;;;2.49;75.77
49044;BME280;34860;48.066;14.124;2023-11-19T06:33:37;96550.72;;;2.49;75.67
49044;BME280;34860;48.066;14.124;2023-11-19T06:36:34;96540.13;;;2.44;75.72
49044;BME280;34860;48.066;14.124;2023-11-19T06:39:32;96536.63;;;2.43;75.76
49044;BME280;34860;48.066;14.124;2023-11-19T06:42:30;96523.69;;;2.40;75.74
49044;BME280;34860;48.066;14.124;2023-11-19T06:45:27;96543.25;;;2.39;75.81
49044;BME280;34860;48.066;14.124;2023-11-19T06:48:25;96546.03;;;2.46;75.72
49044;BME280;34860;48.066;14.124;2023-11-19T06:51:24;96520.16;;;2.50;75.68
49044;BME280;34860;48.066;14.124;2023-11-19T06:54:20;96526.84;;;2.57;75.69
49044;BME280;34860;48.066;14.124;2023-11-19T06:57:18;96526.88;;;2.64;75.58
49044;BME280;34860;48.066;14.124;2023-11-19T07:00:18;96517.50;;;2.76;75.46
49044;BME280;34860;48.066;14.124;2023-11-19T07:03:18;96528.09;;;2.91;75.42
49044;BME280;34860;48.066;14.124;2023-11-19T07:06:23;96515.19;;;2.96;75.55
49044;BME280;34860;48.066;14.124;2023-11-19T07:09:23;96519.88;;;3.06;75.48
49044;BME280;34860;48.066;14.124;2023-11-19T07:12:25;96512.44;;;3.14;75.46
49044;BME280;34860;48.066;14.124;2023-11-19T07:15:24;96514.41;;;3.17;75.47
49044;BME280;34860;48.066;14.124;2023-11-19T07:18:25;96521.09;;;3.19;75.72
49044;BME280;34860;48.066;14.124;2023-11-19T07:21:27;96521.09;;;3.23;75.69
49044;BME280;34860;48.066;14.124;2023-11-19T07:24:28;96519.53;;;3.15;76.29
49044;BME280;34860;48.066;14.124;2023-11-19T07:27:27;96521.84;;;3.27;76.34
49044;BME280;34860;48.066;14.124;2023-11-19T07:30:26;96510.47;;;3.43;76.01
49044;BME280;34860;48.066;14.124;2023-11-19T07:33:20;96507.72;;;3.54;75.85
49044;BME280;34860;48.066;14.124;2023-11-19T07:36:09;96510.06;;;3.55;75.89
49044;BME280;34860;48.066;14.124;2023-11-19T07:38:59;96512.44;;;3.64;76.00
49044;BME280;34860;48.066;14.124;2023-11-19T07:41:48;96514.78;;;3.66;76.10
49044;BME280;34860;48.066;14.124;2023-11-19T07:44:37;96517.91;;;3.71;76.31
49044;BME280;34860;48.066;14.124;2023-11-19T07:47:26;96518.69;;;3.68;76.30
49044;BME280;34860;48.066;14.124;2023-11-19T07:50:16;96526.53;;;3.70;76.57
49044;BME280;34860;48.066;14.124;2023-11-19T07:53:08;96524.22;;;3.61;76.97
49044;BME280;34860;48.066;14.124;2023-11-19T07:56:00;96521.84;;;3.67;77.17
49044;BME280;34860;48.066;14.124;2023-11-19T07:58:48;96529.28;;;3.70;76.97
49044;BME280;34860;48.066;14.124;2023-11-19T08:01:37;96531.63;;;3.75;76.90
49044;BME280;34860;48.066;14.124;2023-11-19T08:04:25;96536.72;;;3.76;76.98
49044;BME280;34860;48.066;14.124;2023-11-19T08:07:16;96537.91;;;3.72;77.12
49044;BME280;34860;48.066;14.124;2023-11-19T08:10:07;96541.09;;;3.70;77.43
49044;BME280;34860;48.066;14.124;2023-11-19T08:12:59;96535.59;;;3.63;77.42
49044;BME280;34860;48.066;14.124;2023-11-19T08:15:48;96544.22;;;3.61;77.70
49044;BME280;34860;48.066;14.124;2023-11-19T08:18:41;96548.94;;;3.64;77.88
49044;BME280;34860;48.066;14.124;2023-11-19T08:21:31;96543.84;;;3.63;77.80
49044;BME280;34860;48.066;14.124;2023-11-19T08:24:20;96536.00;;;3.58;77.86
49044;BME280;34860;48.066;14.124;2023-11-19T08:27:08;96519.91;;;3.56;77.92
49044;BME280;34860;48.066;14.124;2023-11-19T08:29:59;96519.50;;;3.58;78.25
49044;BME280;34860;48.066;14.124;2023-11-19T08:32:48;96517.13;;;3.63;77.87
49044;BME280;34860;48.066;14.124;2023-11-19T08:35:38;96519.50;;;3.69;77.72
49044;BME280;34860;48.066;14.124;2023-11-19T08:38:27;96519.09;;;3.74;77.58
49044;BME280;34860;48.066;14.124;2023-11-19T08:41:17;96504.56;;;3.77;77.68
49044;BME280;34860;48.066;14.124;2023-11-19T08:44:07;96517.09;;;3.78;77.68
49044;BME280;34860;48.066;14.124;2023-11-19T08:46:57;96505.31;;;3.81;77.91
49044;BME280;34860;48.066;14.124;2023-11-19T08:49:46;96499.44;;;3.86;77.53
49044;BME280;34860;48.066;14.124;2023-11-19T08:52:49;96503.34;;;3.85;77.70
49044;BME280;34860;48.066;14.124;2023-11-19T08:55:40;96498.63;;;3.86;77.76
49044;BME280;34860;48.066;14.124;2023-11-19T08:58:31;96501.75;;;3.88;77.92
49044;BME280;34860;48.066;14.124;2023-11-19T09:01:21;96495.47;;;3.98;77.77
49044;BME280;34860;48.066;14.124;2023-11-19T09:04:12;96479.31;;;4.11;77.53
49044;BME280;34860;48.066;14.124;2023-11-19T09:07:02;96475.72;;;4.25;77.43
49044;BME280;34860;48.066;14.124;2023-11-19T09:09:53;96477.97;;;4.44;77.15
49044;BME280;34860;48.066;14.124;2023-11-19T09:12:42;96485.34;;;4.65;77.04
49044;BME280;34860;48.066;14.124;2023-11-19T09:15:31;96488.84;;;4.73;76.80
49044;BME280;34860;48.066;14.124;2023-11-19T09:18:22;96487.63;;;4.78;76.82
49044;BME280;34860;48.066;14.124;2023-11-19T09:21:13;96486.47;;;4.71;77.17
49044;BME280;34860;48.066;14.124;2023-11-19T09:24:03;96487.28;;;4.68;77.42
49044;BME280;34860;48.066;14.124;2023-11-19T09:26:53;96482.22;;;4.63;77.54
49044;BME280;34860;48.066;14.124;2023-11-19T09:29:44;96474.69;;;4.71;77.72
49044;BME280;34860;48.066;14.124;2023-11-19T09:32:35;96471.75;;;4.96;77.18
49044;BME280;34860;48.066;14.124;2023-11-19T09:35:26;96478.69;;;5.15;76.50
49044;BME280;34860;48.066;14.124;2023-11-19T09:38:17;96471.97;;;5.20;76.15
49044;BME280;34860;48.066;14.124;2023-11-19T09:41:04;96466.09;;;5.18;76.09
49044;BME280;34860;48.066;14.124;2023-11-19T09:43:56;96464.50;;;5.20;75.98
49044;BME280;34860;48.066;14.124;2023-11-19T09:46:46;96455.03;;;5.21;76.00
49044;BME280;34860;48.066;14.124;2023-11-19T09:49:37;96455.44;;;5.23;75.99
49044;BME280;34860;48.066;14.124;2023-11-19T09:52:28;96458.59;;;5.18;75.87
49044;BME280;34860;48.066;14.124;2023-11-19T09:55:20;96455.91;;;5.11;76.44
49044;BME280;34860;48.066;14.124;2023-11-19T09:58:11;96456.28;;;5.13;76.49
49044;BME280;34860;48.066;14.124;2023-11-19T10:01:05;96453.16;;;5.11;76.71
49044;BME280;34860;48.066;14.124;2023-11-19T10:04:01;96459.75;;;5.21;76.38
49044;BME280;34860;48.066;14.124;2023-11-19T10:06:52;96453.06;;;5.22;76.69
49044;BME280;34860;48.066;14.124;2023-11-19T10:09:42;96454.13;;;5.35;76.51
49044;BME280;34860;48.066;14.124;2023-11-19T10:12:37;96449.72;;;5.45;76.39
49044;BME280;34860;48.066;14.124;2023-11-19T10:15:44;96448.44;;;5.57;75.96
49044;BME280;34860;48.066;14.124;2023-11-19T10:18:37;96436.53;;;5.63;76.02
49044;BME280;34860;48.066;14.124;2023-11-19T10:21:34;96435.31;;;5.68;75.82
49044;BME280;34860;48.066;14.124;2023-11-19T10:24:32;96436.41;;;5.74;75.63
49044;BME280;34860;48.066;14.124;2023-11-19T10:27:24;96436.69;;;5.87;75.32
49044;BME280;34860;48.066;14.124;2023-11-19T10:30:20;96439.66;;;6.04;75.23
49044;BME280;34860;48.066;14.124;2023-11-19T10:33:12;96439.44;;;6.22;75.10
49044;BME280;34860;48.066;14.124;2023-11-19T10:36:06;96428.91;;;6.44;74.83
49044;BME280;34860;48.066;14.124;2023-11-19T10:38:57;96419.44;;;6.72;74.67
49044;BME280;34860;48.066;14.124;2023-11-19T10:41:48;96417.78;;;7.02;74.52
49044;BME280;34860;48.066;14.124;2023-11-19T10:44:42;96410.41;;;7.19;74.73
49044;BME280;34860;48.066;14.124;2023-11-19T10:47:38;96409.72;;;7.35;74.66
49044;BME280;34860;48.066;14.124;2023-11-19T10:50:30;96404.00;;;7.45;74.76
49044;BME280;34860;48.066;14.124;2023-11-19T10:53:23;96411.34;;;7.32;75.46
49044;BME280;34860;48.066;14.124;2023-11-19T10:56:17;96401.44;;;7.11;76.25
49044;BME280;34860;48.066;14.124;2023-11-19T10:59:09;96401.06;;;6.85;77.17
49044;BME280;34860;48.066;14.124;2023-11-19T11:02:06;96402.81;;;6.76;77.55
49044;BME280;34860;48.066;14.124;2023-11-19T11:05:00;96404.41;;;6.73;77.75
49044;BME280;34860;48.066;14.124;2023-11-19T11:07:55;96408.81;;;6.70;77.70
49044;BME280;34860;48.066;14.124;2023-11-19T11:10:45;96404.94;;;6.64;77.89
49044;BME280;34860;48.066;14.124;2023-11-19T11:13:42;96406.28;;;6.52;78.21
49044;BME280;34860;48.066;14.124;2023-11-19T11:16:33;96396.94;;;6.46;78.46
49044;BME280;34860;48.066;14.124;2023-11-19T11:19:24;96386.34;;;6.41;78.54
49044;BME280;34860;48.066;14.124;2023-11-19T11:22:21;96392.34;;;6.36;78.63
49044;BME280;34860;48.066;14.124;2023-11-19T11:26:18;96402.25;;;6.33;78.55
49044;BME280;34860;48.066;14.124;2023-11-19T11:29:20;96401.81;;;6.35;78.48
49044;BME280;34860;48.066;14.124;2023-11-19T11:32:25;96409.78;;;6.29;78.72
49044;BME280;34860;48.066;14.124;2023-11-19T11:35:29;96410.97;;;6.28;78.42
49044;BME280;34860;48.066;14.124;2023-11-19T11:38:23;96387.59;;;6.36;78.61
49044;BME280;34860;48.066;14.124;2023-11-19T11:41:18;96380.59;;;6.55;78.28
49044;BME280;34860;48.066;14.124;2023-11-19T11:44:09;96388.84;;;6.86;77.58
49044;BME280;34860;48.066;14.124;2023-11-19T11:46:59;96377.97;;;7.23;76.99
49044;BME280;34860;48.066;14.124;2023-11-19T11:49:49;96393.97;;;7.55;76.21
49044;BME280;34860;48.066;14.124;2023-11-19T11:53:13;96390.44;;;7.95;75.66
49044;BME280;34860;48.066;14.124;2023-11-19T11:56:05;96382.94;;;8.32;75.07
49044;BME280;34860;48.066;14.124;2023-11-19T11:58:57;96382.75;;;8.59;74.78
49044;BME280;34860;48.066;14.124;2023-11-19T12:01:57;96388.72;;;8.74;74.85
49044;BME280;34860;48.066;14.124;2023-11-19T12:04:50;96383.63;;;8.72;75.08
49044;BME280;34860;48.066;14.124;2023-11-19T12:07:54;96372.81;;;8.78;75.51
49044;BME280;34860;48.066;14.124;2023-11-19T12:10:47;96369.78;;;8.89;75.62
49044;BME280;34860;48.066;14.124;2023-11-19T12:13:55;96359.31;;;8.97;75.68
49044;BME280;34860;48.066;14.124;2023-11-19T12:16:53;96357.22;;;9.01;75.71
49044;BME280;34860;48.066;14.124;2023-11-19T12:19:43;96382.06;;;9.04;75.97
49044;BME280;34860;48.066;14.124;2023-11-19T12:22:37;96368.72;;;9.16;75.96
49044;BME280;34860;48.066;14.124;2023-11-19T12:25:34;96368.06;;;9.41;75.77
49044;BME280;34860;48.066;14.124;2023-11-19T12:28:25;96364.78;;;9.75;75.29
49044;BME280;34860;48.066;14.124;2023-11-19T12:31:18;96353.97;;;10.07;75.04
49044;BME280;34860;48.066;14.124;2023-11-19T12:34:08;96360.94;;;10.41;74.71
49044;BME280;34860;48.066;14.124;2023-11-19T12:37:05;96367.28;;;10.41;74.55
49044;BME280;34860;48.066;14.124;2023-11-19T12:39:58;96372.78;;;10.28;75.53
49044;BME280;34860;48.066;14.124;2023-11-19T12:42:52;96362.72;;;10.34;75.53
49044;BME280;34860;48.066;14.124;2023-11-19T12:45:44;96358.81;;;10.58;75.36
49044;BME280;34860;48.066;14.124;2023-11-19T12:48:36;96356.59;;;10.78;75.11
49044;BME280;34860;48.066;14.124;2023-11-19T12:51:31;96361.16;;;10.72;75.34
49044;BME280;34860;48.066;14.124;2023-11-19T12:54:32;96367.28;;;10.41;76.17
49044;BME280;34860;48.066;14.124;2023-11-19T12:57:36;96370.94;;;10.38;76.55
49044;BME280;34860;48.066;14.124;2023-11-19T13:00:27;96362.50;;;10.54;76.35
49044;BME280;34860;48.066;14.124;2023-11-19T13:03:29;96343.84;;;10.68;76.10
49044;BME280;34860;48.066;14.124;2023-11-19T13:06:22;96345.38;;;10.82;75.92
49044;BME280;34860;48.066;14.124;2023-11-19T13:09:24;96332.00;;;10.89;75.93
49044;BME280;34860;48.066;14.124;2023-11-19T13:12:15;96316.88;;;11.03;75.67
49044;BME280;34860;48.066;14.124;2023-11-19T13:15:06;96311.69;;;11.27;75.34
49044;BME280;34860;48.066;14.124;2023-11-19T13:18:02;96312.97;;;11.36;75.46
49044;BME280;34860;48.066;14.124;2023-11-19T13:20:53;96319.22;;;11.40;75.59
49044;BME280;34860;48.066;14.124;2023-11-19T13:23:47;96316.81;;;11.51;75.52
49044;BME280;34860;48.066;14.124;2023-11-19T13:26:37;96308.53;;;11.60;75.57
49044;BME280;34860;48.066;14.124;2023-11-19T13:29:29;96307.97;;;11.66;75.79
49044;BME280;34860;48.066;14.124;2023-11-19T13:32:19;96315.41;;;11.69;75.77
49044;BME280;34860;48.066;14.124;2023-11-19T13:35:09;96320.84;;;11.72;75.69
49044;BME280;34860;48.066;14.124;2023-11-19T13:37:59;96323.22;;;11.83;75.84
49044;BME280;34860;48.066;14.124;2023-11-19T13:40:51;96309.84;;;11.91;75.95
49044;BME280;34860;48.066;14.124;2023-11-19T13:43:43;96315.34;;;12.04;75.61
49044;BME280;34860;48.066;14.124;2023-11-19T13:46:39;96317.28;;;12.16;75.47
49044;BME280;34860;48.066;14.124;2023-11-19T13:49:30;96318.56;;;12.24;75.45
49044;BME280;34860;48.066;14.124;2023-11-19T13:52:20;96317.66;;;12.27;75.38
49044;BME280;34860;48.066;14.124;2023-11-19T13:55:12;96325.88;;;12.31;75.43
49044;BME280;34860;48.066;14.124;2023-11-19T13:58:06;96322.31;;;12.40;75.50
49044;BME280;34860;48.066;14.124;2023-11-19T14:00:56;96309.22;;;12.49;75.33
49044;BME280;34860;48.066;14.124;2023-11-19T14:03:47;96316.22;;;12.54;75.18
49044;BME280;34860;48.066;14.124;2023-11-19T14:06:37;96314.81;;;12.59;75.18
49044;BME280;34860;48.066;14.124;2023-11-19T14:09:31;96302.59;;;12.56;75.48
49044;BME280;34860;48.066;14.124;2023-11-19T14:12:22;96307.66;;;12.48;75.68
49044;BME280;34860;48.066;14.124;2023-11-19T14:15:13;96308.28;;;12.43;76.00
49044;BME280;34860;48.066;14.124;2023-11-19T14:18:05;96300.38;;;12.42;75.98
49044;BME280;34860;48.066;14.124;2023-11-19T14:20:56;96300.38;;;12.42;76.02
49044;BME280;34860;48.066;14.124;2023-11-19T14:23:48;96302.50;;;12.38;76.13
49044;BME280;34860;48.066;14.124;2023-11-19T14:26:39;96305.59;;;12.40;76.16
49044;BME280;34860;48.066;14.124;2023-11-19T14:29:29;96311.00;;;12.34;76.16
49044;BME280;34860;48.066;14.124;2023-11-19T14:32:21;96314.41;;;12.29;76.23
49044;BME280;34860;48.066;14.124;2023-11-19T14:35:12;96313.75;;;12.25;76.34
49044;BME280;34860;48.066;14.124;2023-11-19T14:38:02;96316.03;;;12.17;76.59
49044;BME280;34860;48.066;14.124;2023-11-19T14:40:55;96309.50;;;12.11;76.50
49044;BME280;34860;48.066;14.124;2023-11-19T14:43:48;96316.94;;;12.14;76.34
49044;BME280;34860;48.066;14.124;2023-11-19T14:46:41;96310.75;;;12.10;76.40
49044;BME280;34860;48.066;14.124;2023-11-19T14:49:36;96315.66;;;12.06;76.33
49044;BME280;34860;48.066;14.124;2023-11-19T14:52:27;96309.63;;;12.07;76.02
49044;BME280;34860;48.066;14.124;2023-11-19T14:55:20;96318.44;;;12.06;76.01
49044;BME280;34860;48.066;14.124;2023-11-19T14:58:10;96305.88;;;12.01;76.23
49044;BME280;34860;48.066;14.124;2023-11-19T15:01:03;96304.34;;;12.00;76.28
49044;BME280;34860;48.066;14.124;2023-11-19T15:03:54;96297.66;;;11.97;76.30
49044;BME280;34860;48.066;14.124;2023-11-19T15:06:48;96303.16;;;11.88;76.36
49044;BME280;34860;48.066;14.124;2023-11-19T15:09:42;96298.19;;;11.83;76.43
49044;BME280;34860;48.066;14.124;2023-11-19T15:12:35;96297.53;;;11.79;76.40
49044;BME280;34860;48.066;14.124;2023-11-19T15:15:29;96294.09;;;11.75;76.50
49044;BME280;34860;48.066;14.124;2023-11-19T15:18:22;96279.53;;;11.71;76.45
49044;BME280;34860;48.066;14.124;2023-11-19T15:21:13;96275.00;;;11.64;76.43
49044;BME280;34860;48.066;14.124;2023-11-19T15:24:07;96286.28;;;11.60;76.55
49044;BME280;34860;48.066;14.124;2023-11-19T15:26:58;96292.75;;;11.57;76.37